Portada
METAR-TAF:

METAR-TAF

Aeroports :

Haikou, Xina

latitud: 19-56-05N, longitud: 110-27-32E, altitud: 23 m

Observació

L'informe es va fer fa 51 minuts, a les 03:00 UTC
Vent 12 kt del Nord-Est
Temperatura 26°C
Humitat 61%
Pressió 1020 hPa
Visibilitat 10 km o més
Núvols disperses a una alçada de 3300 ft

METAR: ZJHK 210300Z 04006MPS 9999 SCT033 26/18 Q1020 NOSIG

Hora: 11:51 (03:51 UTC)

Pronòstic

L'informe es va fer fa 8 hores i 48 minuts, a les 19:03 UTC
Pronòstic vàlid del 21 a les 00 UTC al 21 a les 24 UTC
Vent 8 kt del Est/Nord-Est
Visibilitat: 5000 m
Núvols disperses a una alçada de 2000 ft
boirina

TAF: ZJHK 201903Z 2100/2124 06004MPS 5000 BR SCT020 TX26/2106Z TN19/2121Z

Observacions i pronòstics meteorològics de més de 4000 aeroports (METAR i TAF).

Les estacions disponibles són els punts grocs i vermells al mapa.

Posi el ratolí al punt desitjat per veure el nom de l'estació.

Feu clic per veure les observacions i els pronòstics meteorològics.

Per canviar el mapa: feu clic els botons verds amb una creu de color negre per apropar; al botó verd amb un guió per allunyar la imatge; o en les fletxes verdes per a mapes adjacents.


METAR-TAF: